KMPV 210151Z AUTO 16017G23KT 10SM FEW039 17/14 A2986 RMK AO2 SLP112 T01720144